KOMK/OMK METAR and TAF weather

Enter ICAO airport designator
Station Type Date Time Source
KOMK METAR 2023/01/30 09:53 UTC NOAA

KOMK 300953Z AUTO 00000KT 10SM CLR M16/M19 A3048 RMK AO2 SLP349 T11561189 $


Station Type Date Time Source
KOMK Decoded METAR 2023/01/30 09:53 UTC NOAA

OMAK AIRPORT, WA, United States (KOMK) 48-28N 119-31W 395M
Jan 30, 2023 - 04:53 AM EST / 2023.01.30 0953 UTC
Wind: Calm:0
Visibility: 10 mile(s):0
Sky conditions: clear
Temperature: 3.9 F (-15.6 C)
Dew Point: -2.0 F (-18.9 C)
Relative Humidity: 75%
Pressure (altimeter): 30.48 in. Hg (1032 hPa)
ob: KOMK 300953Z AUTO 00000KT 10SM CLR M16/M19 A3048 RMK AO2 SLP349 T11561189
cycle: 10

Station Type Date Time Source
KOMK TAF UTC NOAA

Error!

Example: see airport list